CheckWX is a tool to help pilots better visualize weather data.  It is not intended as a substitute for an official pre-flight weather briefing.

14:14:58 UTC

KTBN METAR
Waynesville-St Robert Regional Forney Field Airport
Fort Leonard Wood, Missouri, USA
Current

19 mins ago

KTBN 221356Z AUTO 17011G18KT 10SM CLR 21/11 A3002 RMK AO2 SLP161 T02060107 $
Observed
Apr-22 @ 13:56 UTC
Wind
  • 170° at 11 KTS
  • Gusting to 18 KTS
Visibility
10 SM
Flight Rules
VFR
Cloud Levels
  • Clear skies
Temperature
21°C / 70°F
Dewpoint
11°C / 52°F
Humidity
53%
Altimeter
30.02" Hg
Pressure
1016.62 hPa
Previous

1 hour ago

KTBN 221256Z AUTO 15006KT 10SM CLR 17/10 A3004 RMK AO2 SLP168 T01670101 $
Observed
Apr-22 @ 12:56 UTC
Wind
  • 150° at 6 KTS
Visibility
10 SM
Flight Rules
VFR
Cloud Levels
  • Clear skies
Temperature
17°C / 63°F
Dewpoint
10°C / 50°F
Humidity
64%
Altimeter
30.04" Hg
Pressure
1017.32 hPa
Previous

2 hours ago

KTBN 221156Z AUTO 14007KT 10SM SCT130 16/10 A3002 RMK AO2 SLP161 T01590102 10192 20158 50011 $
Observed
Apr-22 @ 11:56 UTC
Wind
  • 140° at 7 KTS
Visibility
10 SM
Flight Rules
VFR
Cloud Levels
  • Scattered at 13,000' AGL
Temperature
16°C / 61°F
Dewpoint
10°C / 50°F
Humidity
68%
Altimeter
30.02" Hg
Pressure
1016.62 hPa